N151ND KJKA-KBYY
Flight info
| Callsign | N151ND |
|---|---|
| Flight time | 1h 40m |
| Altitude | 28000 |
| Route | RONNS HRV Q56 HEIGH COSDI |
| Aircraft | B350/L-SBDFGRYZ/LB1 |
Departure
| Time | 2026-04-13 17:42 |
|---|---|
| Airport | Jack Edwards National Airport (KJKA) |
Arrival
| Time | 2026-04-13 19:23 |
|---|---|
| Airport | Bay City Regional Airport (KBYY) |
| Time | Latitude | Longitude | Altitude | Speed | Heading |
|---|---|---|---|---|---|
| 2026-04-13 17:25 | 30.28816 | -87.67852 | 20 ft | 0 kts | 254° |
| 2026-04-13 17:37 | 30.28816 | -87.67854 | 20 ft | 2 kts | 269° |
| 2026-04-13 17:38 | 30.28847 | -87.67860 | 20 ft | 8 kts | 3° |
| 2026-04-13 17:38 | 30.28911 | -87.67867 | 22 ft | 10 kts | 315° |
| 2026-04-13 17:38 | 30.28919 | -87.67950 | 20 ft | 9 kts | 270° |
| 2026-04-13 17:38 | 30.28919 | -87.68007 | 20 ft | 6 kts | 280° |
| 2026-04-13 17:39 | 30.28936 | -87.68022 | 20 ft | 0 kts | 3° |
| 2026-04-13 17:40 | 30.28937 | -87.68022 | 20 ft | 1 kts | 2° |
| 2026-04-13 17:41 | 30.28972 | -87.68020 | 20 ft | 8 kts | 2° |
| 2026-04-13 17:41 | 30.29024 | -87.67994 | 21 ft | 8 kts | 86° |
| 2026-04-13 17:41 | 30.29027 | -87.67844 | 22 ft | 45 kts | 90° |
| 2026-04-13 17:41 | 30.29030 | -87.67181 | 20 ft | 117 kts | 89° |
| 2026-04-13 17:42 | 30.29035 | -87.66083 | 294 ft | 149 kts | 91° |
| 2026-04-13 17:42 | 30.29053 | -87.65246 | 598 ft | 163 kts | 91° |
| 2026-04-13 17:42 | 30.29114 | -87.63880 | 1196 ft | 177 kts | 88° |
| 2026-04-13 17:42 | 30.29284 | -87.61935 | 1944 ft | 188 kts | 86° |
| 2026-04-13 17:43 | 30.29425 | -87.60415 | 2521 ft | 192 kts | 87° |
| 2026-04-13 17:43 | 30.29310 | -87.58915 | 3092 ft | 185 kts | 122° |
| 2026-04-13 17:43 | 30.28341 | -87.58137 | 3827 ft | 173 kts | 175° |
| 2026-04-13 17:43 | 30.27258 | -87.58633 | 4471 ft | 179 kts | 229° |
| 2026-04-13 17:44 | 30.26681 | -87.59945 | 5115 ft | 186 kts | 244° |
| 2026-04-13 17:44 | 30.26296 | -87.61398 | 5772 ft | 190 kts | 251° |
| 2026-04-13 17:44 | 30.25906 | -87.62854 | 6432 ft | 190 kts | 249° |
| 2026-04-13 17:44 | 30.25482 | -87.64312 | 7080 ft | 192 kts | 249° |
| 2026-04-13 17:45 | 30.25059 | -87.65791 | 7662 ft | 194 kts | 249° |
| 2026-04-13 17:45 | 30.24649 | -87.67263 | 8230 ft | 196 kts | 250° |
| 2026-04-13 17:45 | 30.24229 | -87.68766 | 8797 ft | 197 kts | 250° |
| 2026-04-13 17:45 | 30.23807 | -87.70281 | 9378 ft | 199 kts | 250° |
| 2026-04-13 17:46 | 30.23381 | -87.71812 | 9968 ft | 201 kts | 251° |
| 2026-04-13 17:46 | 30.22951 | -87.73360 | 10527 ft | 202 kts | 251° |
| 2026-04-13 17:46 | 30.22517 | -87.74915 | 11064 ft | 204 kts | 251° |
| 2026-04-13 17:46 | 30.22080 | -87.76480 | 11606 ft | 205 kts | 251° |
| 2026-04-13 17:47 | 30.21641 | -87.78051 | 12153 ft | 205 kts | 251° |
| 2026-04-13 17:47 | 30.21204 | -87.79609 | 12710 ft | 207 kts | 252° |
| 2026-04-13 17:47 | 30.20761 | -87.81191 | 13269 ft | 208 kts | 252° |
| 2026-04-13 17:47 | 30.20314 | -87.82788 | 13837 ft | 209 kts | 252° |
| 2026-04-13 17:48 | 30.19865 | -87.84390 | 14371 ft | 210 kts | 252° |
| 2026-04-13 17:48 | 30.19415 | -87.85994 | 14877 ft | 210 kts | 252° |
| 2026-04-13 17:48 | 30.19110 | -87.87078 | 15215 ft | 210 kts | 251° |
| 2026-04-13 17:48 | 30.18511 | -87.89213 | 15904 ft | 211 kts | 251° |
| 2026-04-13 17:49 | 30.18057 | -87.90826 | 16413 ft | 211 kts | 251° |
| 2026-04-13 17:49 | 30.17602 | -87.92446 | 16927 ft | 212 kts | 251° |
| 2026-04-13 17:49 | 30.17147 | -87.94067 | 17444 ft | 212 kts | 251° |
| 2026-04-13 17:49 | 30.16689 | -87.95693 | 17958 ft | 213 kts | 251° |
| 2026-04-13 17:50 | 30.16225 | -87.97338 | 18299 ft | 221 kts | 251° |
| 2026-04-13 17:50 | 30.15906 | -87.98471 | 18518 ft | 225 kts | 251° |
| 2026-04-13 17:50 | 30.15264 | -88.00752 | 19020 ft | 225 kts | 251° |
| 2026-04-13 17:50 | 30.14882 | -88.02513 | 19376 ft | 227 kts | 258° |
| 2026-04-13 17:51 | 30.14629 | -88.04315 | 19740 ft | 227 kts | 259° |
| 2026-04-13 17:51 | 30.14370 | -88.06117 | 20108 ft | 228 kts | 259° |
| 2026-04-13 17:51 | 30.14197 | -88.07317 | 20347 ft | 228 kts | 259° |
| 2026-04-13 17:51 | 30.13848 | -88.09746 | 20820 ft | 229 kts | 259° |
| 2026-04-13 17:52 | 30.13586 | -88.11569 | 21163 ft | 230 kts | 259° |
| 2026-04-13 17:52 | 30.13322 | -88.13401 | 21499 ft | 231 kts | 259° |
| 2026-04-13 17:52 | 30.13058 | -88.15237 | 21829 ft | 232 kts | 260° |
| 2026-04-13 17:52 | 30.12792 | -88.17079 | 22159 ft | 233 kts | 260° |
| 2026-04-13 17:53 | 30.12615 | -88.18304 | 22372 ft | 233 kts | 260° |
| 2026-04-13 17:53 | 30.12261 | -88.20760 | 22814 ft | 234 kts | 260° |
| 2026-04-13 17:53 | 30.11992 | -88.22623 | 23140 ft | 235 kts | 260° |
| 2026-04-13 17:53 | 30.11722 | -88.24495 | 23461 ft | 236 kts | 260° |
| 2026-04-13 17:54 | 30.11451 | -88.26375 | 23776 ft | 237 kts | 260° |
| 2026-04-13 17:54 | 30.11178 | -88.28262 | 24043 ft | 238 kts | 260° |
| 2026-04-13 17:54 | 30.10904 | -88.30153 | 24291 ft | 239 kts | 260° |
| 2026-04-13 17:54 | 30.10628 | -88.32053 | 24529 ft | 240 kts | 260° |
| 2026-04-13 17:55 | 30.10350 | -88.33965 | 24765 ft | 241 kts | 260° |
| 2026-04-13 17:55 | 30.10074 | -88.35860 | 24997 ft | 242 kts | 260° |
| 2026-04-13 17:55 | 30.09794 | -88.37783 | 25227 ft | 243 kts | 259° |
| 2026-04-13 17:55 | 30.09511 | -88.39720 | 25442 ft | 244 kts | 259° |
| 2026-04-13 17:56 | 30.09227 | -88.41661 | 25662 ft | 245 kts | 259° |
| 2026-04-13 17:56 | 30.08943 | -88.43606 | 25878 ft | 246 kts | 259° |
| 2026-04-13 17:56 | 30.08661 | -88.45531 | 26081 ft | 247 kts | 259° |
| 2026-04-13 17:56 | 30.08374 | -88.47492 | 26285 ft | 248 kts | 259° |
| 2026-04-13 17:57 | 30.08086 | -88.49453 | 26485 ft | 248 kts | 259° |
| 2026-04-13 17:57 | 30.07796 | -88.51427 | 26676 ft | 249 kts | 259° |
| 2026-04-13 17:57 | 30.07604 | -88.52735 | 26800 ft | 250 kts | 259° |
| 2026-04-13 17:57 | 30.07213 | -88.55389 | 27050 ft | 251 kts | 259° |
| 2026-04-13 17:58 | 30.06920 | -88.57378 | 27236 ft | 252 kts | 259° |
| 2026-04-13 17:58 | 30.06630 | -88.59349 | 27412 ft | 252 kts | 259° |
| 2026-04-13 17:58 | 30.06334 | -88.61345 | 27585 ft | 253 kts | 259° |
| 2026-04-13 17:58 | 30.06037 | -88.63354 | 27750 ft | 254 kts | 258° |
| 2026-04-13 17:59 | 30.05740 | -88.65367 | 27917 ft | 254 kts | 258° |
| 2026-04-13 17:59 | 30.05441 | -88.67386 | 28076 ft | 255 kts | 258° |
| 2026-04-13 17:59 | 30.05141 | -88.69406 | 28235 ft | 256 kts | 258° |
| 2026-04-13 17:59 | 30.04842 | -88.71421 | 28280 ft | 260 kts | 258° |
| 2026-04-13 18:00 | 30.04634 | -88.72823 | 28288 ft | 263 kts | 258° |
| 2026-04-13 18:00 | 30.04221 | -88.75610 | 28296 ft | 268 kts | 258° |
| 2026-04-13 18:00 | 30.03904 | -88.77748 | 28301 ft | 271 kts | 258° |
| 2026-04-13 18:00 | 30.03584 | -88.79901 | 28301 ft | 273 kts | 258° |
| 2026-04-13 18:01 | 30.03261 | -88.82066 | 28302 ft | 275 kts | 258° |
| 2026-04-13 18:01 | 30.03046 | -88.83509 | 28306 ft | 276 kts | 258° |
| 2026-04-13 18:01 | 30.02609 | -88.86435 | 28303 ft | 278 kts | 258° |
| 2026-04-13 18:01 | 30.02278 | -88.88642 | 28299 ft | 279 kts | 258° |
| 2026-04-13 18:02 | 30.01947 | -88.90852 | 28298 ft | 280 kts | 258° |
| 2026-04-13 18:02 | 30.01615 | -88.93064 | 28298 ft | 280 kts | 258° |
| 2026-04-13 18:02 | 30.01393 | -88.94539 | 28298 ft | 281 kts | 258° |
| 2026-04-13 18:02 | 30.00950 | -88.97478 | 28299 ft | 281 kts | 258° |
| 2026-04-13 18:03 | 30.00615 | -88.99702 | 28297 ft | 281 kts | 258° |
| 2026-04-13 18:03 | 30.00278 | -89.01935 | 28294 ft | 282 kts | 258° |
| 2026-04-13 18:03 | 29.99940 | -89.04169 | 28295 ft | 282 kts | 258° |
| 2026-04-13 18:03 | 29.99604 | -89.06394 | 28295 ft | 282 kts | 258° |
| 2026-04-13 18:04 | 29.99380 | -89.07869 | 28293 ft | 282 kts | 258° |
| 2026-04-13 18:04 | 29.98933 | -89.10822 | 28296 ft | 282 kts | 258° |
| 2026-04-13 18:04 | 29.98704 | -89.12327 | 28298 ft | 282 kts | 258° |
| 2026-04-13 18:04 | 29.98365 | -89.14558 | 28300 ft | 282 kts | 258° |
| 2026-04-13 18:05 | 29.98026 | -89.16784 | 28297 ft | 282 kts | 258° |
| 2026-04-13 18:05 | 29.97577 | -89.19737 | 28297 ft | 282 kts | 258° |
| 2026-04-13 18:05 | 29.97236 | -89.21974 | 28297 ft | 282 kts | 258° |
| 2026-04-13 18:05 | 29.96895 | -89.24201 | 28297 ft | 282 kts | 258° |
| 2026-04-13 18:06 | 29.96554 | -89.26436 | 28295 ft | 282 kts | 258° |
| 2026-04-13 18:06 | 29.96213 | -89.28659 | 28295 ft | 282 kts | 258° |
| 2026-04-13 18:06 | 29.95871 | -89.30890 | 28298 ft | 282 kts | 258° |
| 2026-04-13 18:06 | 29.95533 | -89.33095 | 28295 ft | 282 kts | 258° |
| 2026-04-13 18:07 | 29.95190 | -89.35325 | 28296 ft | 282 kts | 258° |
| 2026-04-13 18:07 | 29.94847 | -89.37556 | 28297 ft | 282 kts | 258° |
| 2026-04-13 18:07 | 29.94503 | -89.39790 | 28298 ft | 282 kts | 258° |
| 2026-04-13 18:07 | 29.94159 | -89.42021 | 28299 ft | 282 kts | 258° |
| 2026-04-13 18:08 | 29.93932 | -89.43497 | 28299 ft | 282 kts | 258° |
| 2026-04-13 18:08 | 29.93471 | -89.46483 | 28297 ft | 282 kts | 258° |
| 2026-04-13 18:08 | 29.93126 | -89.48711 | 28298 ft | 283 kts | 258° |
| 2026-04-13 18:08 | 29.92781 | -89.50943 | 28300 ft | 283 kts | 258° |
| 2026-04-13 18:09 | 29.92435 | -89.53171 | 28297 ft | 283 kts | 258° |
| 2026-04-13 18:09 | 29.92088 | -89.55404 | 28295 ft | 283 kts | 258° |
| 2026-04-13 18:09 | 29.91858 | -89.56888 | 28296 ft | 283 kts | 258° |
| 2026-04-13 18:09 | 29.91510 | -89.59123 | 28294 ft | 283 kts | 258° |
| 2026-04-13 18:10 | 29.91050 | -89.62079 | 28292 ft | 283 kts | 258° |
| 2026-04-13 18:10 | 29.90703 | -89.64308 | 28295 ft | 283 kts | 258° |
| 2026-04-13 18:10 | 29.90467 | -89.65814 | 28293 ft | 283 kts | 258° |
| 2026-04-13 18:10 | 29.90119 | -89.68045 | 28294 ft | 283 kts | 258° |
| 2026-04-13 18:11 | 29.89773 | -89.70252 | 28294 ft | 283 kts | 258° |
| 2026-04-13 18:11 | 29.89425 | -89.72477 | 28292 ft | 282 kts | 258° |
| 2026-04-13 18:11 | 29.89075 | -89.74709 | 28292 ft | 282 kts | 258° |
| 2026-04-13 18:11 | 29.88726 | -89.76938 | 28290 ft | 282 kts | 258° |
| 2026-04-13 18:12 | 29.88375 | -89.79167 | 28291 ft | 283 kts | 258° |
| 2026-04-13 18:12 | 29.88023 | -89.81401 | 28287 ft | 283 kts | 258° |
| 2026-04-13 18:12 | 29.87672 | -89.83633 | 28289 ft | 283 kts | 258° |
| 2026-04-13 18:12 | 29.87320 | -89.85866 | 28289 ft | 283 kts | 258° |
| 2026-04-13 18:13 | 29.86972 | -89.88073 | 28286 ft | 283 kts | 258° |
| 2026-04-13 18:13 | 29.86618 | -89.90314 | 28282 ft | 283 kts | 258° |
| 2026-04-13 18:13 | 29.86263 | -89.92555 | 28284 ft | 283 kts | 258° |
| 2026-04-13 18:13 | 29.85908 | -89.94790 | 28279 ft | 283 kts | 258° |
| 2026-04-13 18:14 | 29.85558 | -89.96998 | 28284 ft | 283 kts | 258° |
| 2026-04-13 18:14 | 29.85214 | -89.99235 | 28283 ft | 283 kts | 259° |
| 2026-04-13 18:14 | 29.84961 | -90.01484 | 28284 ft | 283 kts | 262° |
| 2026-04-13 18:14 | 29.84799 | -90.03749 | 28284 ft | 284 kts | 264° |
| 2026-04-13 18:15 | 29.84650 | -90.06021 | 28284 ft | 284 kts | 264° |
| 2026-04-13 18:15 | 29.84499 | -90.08288 | 28282 ft | 284 kts | 264° |
| 2026-04-13 18:15 | 29.84347 | -90.10556 | 28283 ft | 284 kts | 264° |
| 2026-04-13 18:15 | 29.84194 | -90.12822 | 28284 ft | 284 kts | 264° |
| 2026-04-13 18:16 | 29.84042 | -90.15069 | 28286 ft | 284 kts | 264° |
| 2026-04-13 18:16 | 29.83888 | -90.17339 | 28284 ft | 284 kts | 264° |
| 2026-04-13 18:16 | 29.83733 | -90.19608 | 28286 ft | 284 kts | 264° |
| 2026-04-13 18:16 | 29.83578 | -90.21875 | 28286 ft | 284 kts | 264° |
| 2026-04-13 18:17 | 29.83425 | -90.24110 | 28284 ft | 284 kts | 264° |
| 2026-04-13 18:17 | 29.83270 | -90.26373 | 28286 ft | 284 kts | 264° |
| 2026-04-13 18:17 | 29.83114 | -90.28649 | 28288 ft | 284 kts | 264° |
| 2026-04-13 18:17 | 29.82957 | -90.30922 | 28288 ft | 284 kts | 264° |
| 2026-04-13 18:18 | 29.82801 | -90.33190 | 28285 ft | 284 kts | 264° |
| 2026-04-13 18:18 | 29.82644 | -90.35457 | 28287 ft | 284 kts | 264° |
| 2026-04-13 18:18 | 29.82487 | -90.37725 | 28285 ft | 284 kts | 264° |
| 2026-04-13 18:18 | 29.82331 | -90.39970 | 28286 ft | 284 kts | 264° |
| 2026-04-13 18:19 | 29.82173 | -90.42238 | 28287 ft | 284 kts | 264° |
| 2026-04-13 18:19 | 29.82015 | -90.44503 | 28283 ft | 284 kts | 264° |
| 2026-04-13 18:19 | 29.81856 | -90.46774 | 28288 ft | 284 kts | 264° |
| 2026-04-13 18:19 | 29.81697 | -90.49039 | 28284 ft | 284 kts | 264° |
| 2026-04-13 18:20 | 29.81537 | -90.51310 | 28288 ft | 284 kts | 264° |
| 2026-04-13 18:20 | 29.81377 | -90.53581 | 28290 ft | 284 kts | 264° |
| 2026-04-13 18:20 | 29.81216 | -90.55855 | 28288 ft | 284 kts | 264° |
| 2026-04-13 18:20 | 29.81057 | -90.58098 | 28292 ft | 284 kts | 264° |
| 2026-04-13 18:21 | 29.80896 | -90.60369 | 28291 ft | 284 kts | 264° |
| 2026-04-13 18:21 | 29.80734 | -90.62643 | 28293 ft | 285 kts | 264° |
| 2026-04-13 18:21 | 29.80571 | -90.64919 | 28288 ft | 285 kts | 264° |
| 2026-04-13 18:21 | 29.80408 | -90.67205 | 28289 ft | 285 kts | 264° |
| 2026-04-13 18:22 | 29.80244 | -90.69484 | 28287 ft | 285 kts | 264° |
| 2026-04-13 18:22 | 29.80079 | -90.71762 | 28287 ft | 285 kts | 264° |
| 2026-04-13 18:22 | 29.79915 | -90.74039 | 28288 ft | 285 kts | 264° |
| 2026-04-13 18:22 | 29.79752 | -90.76288 | 28286 ft | 285 kts | 264° |
| 2026-04-13 18:23 | 29.79588 | -90.78562 | 28292 ft | 285 kts | 264° |
| 2026-04-13 18:23 | 29.79423 | -90.80839 | 28286 ft | 285 kts | 264° |
| 2026-04-13 18:23 | 29.79366 | -90.81617 | 28285 ft | 285 kts | 264° |
| 2026-04-13 18:23 | 29.79090 | -90.85401 | 28287 ft | 285 kts | 264° |
| 2026-04-13 18:24 | 29.78923 | -90.87683 | 28285 ft | 286 kts | 264° |
| 2026-04-13 18:24 | 29.78758 | -90.89933 | 28281 ft | 286 kts | 264° |
| 2026-04-13 18:24 | 29.78590 | -90.92218 | 28282 ft | 286 kts | 264° |
| 2026-04-13 18:24 | 29.78421 | -90.94505 | 28281 ft | 286 kts | 264° |
| 2026-04-13 18:25 | 29.78253 | -90.96788 | 28279 ft | 287 kts | 264° |
| 2026-04-13 18:25 | 29.78083 | -90.99073 | 28275 ft | 287 kts | 264° |
| 2026-04-13 18:25 | 29.77912 | -91.01374 | 28276 ft | 287 kts | 264° |
| 2026-04-13 18:25 | 29.77742 | -91.03659 | 28277 ft | 287 kts | 264° |
| 2026-04-13 18:26 | 29.77572 | -91.05944 | 28278 ft | 287 kts | 264° |
| 2026-04-13 18:26 | 29.77401 | -91.08232 | 28281 ft | 287 kts | 264° |
| 2026-04-13 18:26 | 29.77229 | -91.10524 | 28279 ft | 287 kts | 264° |
| 2026-04-13 18:26 | 29.77060 | -91.12785 | 28282 ft | 287 kts | 264° |
| 2026-04-13 18:27 | 29.76888 | -91.15076 | 28284 ft | 287 kts | 264° |
| 2026-04-13 18:27 | 29.76715 | -91.17366 | 28285 ft | 288 kts | 264° |
| 2026-04-13 18:27 | 29.76541 | -91.19666 | 28282 ft | 288 kts | 264° |
| 2026-04-13 18:27 | 29.76367 | -91.21961 | 28280 ft | 288 kts | 264° |
| 2026-04-13 18:28 | 29.76192 | -91.24259 | 28283 ft | 288 kts | 264° |
| 2026-04-13 18:28 | 29.76018 | -91.26554 | 28285 ft | 288 kts | 264° |
| 2026-04-13 18:28 | 29.75842 | -91.28859 | 28285 ft | 288 kts | 264° |
| 2026-04-13 18:28 | 29.75668 | -91.31130 | 28286 ft | 288 kts | 264° |
| 2026-04-13 18:29 | 29.75492 | -91.33425 | 28285 ft | 288 kts | 264° |
| 2026-04-13 18:29 | 29.75314 | -91.35728 | 28283 ft | 288 kts | 264° |
| 2026-04-13 18:29 | 29.75138 | -91.38027 | 28284 ft | 288 kts | 264° |
| 2026-04-13 18:29 | 29.75019 | -91.39552 | 28284 ft | 288 kts | 264° |
| 2026-04-13 18:30 | 29.74781 | -91.42629 | 28284 ft | 289 kts | 264° |
| 2026-04-13 18:30 | 29.74602 | -91.44936 | 28285 ft | 289 kts | 264° |
| 2026-04-13 18:30 | 29.74424 | -91.47237 | 28285 ft | 289 kts | 264° |
| 2026-04-13 18:30 | 29.74246 | -91.49519 | 28282 ft | 289 kts | 264° |
| 2026-04-13 18:31 | 29.74067 | -91.51827 | 28278 ft | 289 kts | 264° |
| 2026-04-13 18:31 | 29.73886 | -91.54140 | 28279 ft | 290 kts | 264° |
| 2026-04-13 18:31 | 29.73703 | -91.56457 | 28276 ft | 290 kts | 264° |
| 2026-04-13 18:31 | 29.73522 | -91.58763 | 28277 ft | 290 kts | 264° |
| 2026-04-13 18:32 | 29.73340 | -91.61073 | 28276 ft | 290 kts | 264° |
| 2026-04-13 18:32 | 29.73159 | -91.63358 | 28272 ft | 290 kts | 264° |
| 2026-04-13 18:32 | 29.72976 | -91.65670 | 28274 ft | 290 kts | 264° |
| 2026-04-13 18:32 | 29.72793 | -91.67982 | 28269 ft | 290 kts | 264° |
| 2026-04-13 18:33 | 29.72609 | -91.70293 | 28270 ft | 289 kts | 264° |
| 2026-04-13 18:33 | 29.72425 | -91.72598 | 28264 ft | 290 kts | 264° |
| 2026-04-13 18:33 | 29.72241 | -91.74907 | 28262 ft | 290 kts | 264° |
| 2026-04-13 18:34 | 29.71873 | -91.79502 | 28263 ft | 290 kts | 264° |
| 2026-04-13 18:34 | 29.71687 | -91.81812 | 28261 ft | 290 kts | 264° |
| 2026-04-13 18:34 | 29.71501 | -91.84129 | 28262 ft | 290 kts | 264° |
| 2026-04-13 18:34 | 29.71313 | -91.86440 | 28260 ft | 290 kts | 264° |
| 2026-04-13 18:35 | 29.71127 | -91.88751 | 28255 ft | 290 kts | 264° |
| 2026-04-13 18:35 | 29.70942 | -91.91032 | 28253 ft | 290 kts | 264° |
| 2026-04-13 18:35 | 29.70753 | -91.93352 | 28254 ft | 290 kts | 264° |
| 2026-04-13 18:35 | 29.70564 | -91.95675 | 28254 ft | 290 kts | 264° |
| 2026-04-13 18:36 | 29.70376 | -91.97984 | 28249 ft | 290 kts | 264° |
| 2026-04-13 18:36 | 29.70186 | -92.00297 | 28253 ft | 290 kts | 264° |
| 2026-04-13 18:36 | 29.69996 | -92.02611 | 28254 ft | 290 kts | 264° |
| 2026-04-13 18:36 | 29.69809 | -92.04895 | 28251 ft | 291 kts | 264° |
| 2026-04-13 18:37 | 29.69690 | -92.06341 | 28253 ft | 291 kts | 264° |
| 2026-04-13 18:37 | 29.69429 | -92.09508 | 28249 ft | 291 kts | 264° |
| 2026-04-13 18:37 | 29.69237 | -92.11830 | 28250 ft | 291 kts | 264° |
| 2026-04-13 18:37 | 29.69045 | -92.14143 | 28249 ft | 291 kts | 264° |
| 2026-04-13 18:38 | 29.68852 | -92.16460 | 28248 ft | 291 kts | 264° |
| 2026-04-13 18:38 | 29.68659 | -92.18778 | 28249 ft | 291 kts | 264° |
| 2026-04-13 18:38 | 29.68469 | -92.21063 | 28249 ft | 291 kts | 264° |
| 2026-04-13 18:38 | 29.68274 | -92.23389 | 28248 ft | 291 kts | 264° |
| 2026-04-13 18:39 | 29.68079 | -92.25713 | 28247 ft | 291 kts | 264° |
| 2026-04-13 18:39 | 29.67885 | -92.28031 | 28251 ft | 292 kts | 264° |
| 2026-04-13 18:39 | 29.67689 | -92.30356 | 28248 ft | 292 kts | 264° |
| 2026-04-13 18:39 | 29.67494 | -92.32680 | 28247 ft | 292 kts | 264° |
| 2026-04-13 18:40 | 29.67298 | -92.35001 | 28247 ft | 292 kts | 264° |
| 2026-04-13 18:40 | 29.67103 | -92.37300 | 28245 ft | 292 kts | 264° |
| 2026-04-13 18:40 | 29.66906 | -92.39626 | 28246 ft | 292 kts | 264° |
| 2026-04-13 18:40 | 29.66709 | -92.41951 | 28246 ft | 292 kts | 264° |
| 2026-04-13 18:41 | 29.66510 | -92.44280 | 28247 ft | 292 kts | 264° |
| 2026-04-13 18:41 | 29.66311 | -92.46602 | 28243 ft | 292 kts | 264° |
| 2026-04-13 18:41 | 29.66112 | -92.48929 | 28243 ft | 292 kts | 264° |
| 2026-04-13 18:41 | 29.65913 | -92.51253 | 28246 ft | 292 kts | 264° |
| 2026-04-13 18:42 | 29.65713 | -92.53579 | 28242 ft | 292 kts | 264° |
| 2026-04-13 18:42 | 29.65513 | -92.55905 | 28247 ft | 292 kts | 264° |
| 2026-04-13 18:42 | 29.65315 | -92.58205 | 28245 ft | 292 kts | 264° |
| 2026-04-13 18:42 | 29.65113 | -92.60534 | 28246 ft | 292 kts | 264° |
| 2026-04-13 18:43 | 29.64911 | -92.62860 | 28247 ft | 292 kts | 264° |
| 2026-04-13 18:43 | 29.64709 | -92.65187 | 28245 ft | 292 kts | 264° |
| 2026-04-13 18:43 | 29.64506 | -92.67522 | 28246 ft | 292 kts | 264° |
| 2026-04-13 18:43 | 29.64305 | -92.69823 | 28247 ft | 293 kts | 264° |
| 2026-04-13 18:44 | 29.64101 | -92.72148 | 28246 ft | 293 kts | 264° |
| 2026-04-13 18:44 | 29.63896 | -92.74475 | 28245 ft | 293 kts | 264° |
| 2026-04-13 18:44 | 29.63692 | -92.76810 | 28246 ft | 293 kts | 264° |
| 2026-04-13 18:44 | 29.63487 | -92.79143 | 28243 ft | 293 kts | 264° |
| 2026-04-13 18:45 | 29.63350 | -92.80719 | 28241 ft | 293 kts | 264° |
| 2026-04-13 18:45 | 29.63079 | -92.83813 | 28245 ft | 293 kts | 264° |
| 2026-04-13 18:45 | 29.62872 | -92.86148 | 28245 ft | 293 kts | 264° |
| 2026-04-13 18:45 | 29.62665 | -92.88483 | 28246 ft | 294 kts | 264° |
| 2026-04-13 18:46 | 29.62463 | -92.90821 | 28247 ft | 293 kts | 265° |
| 2026-04-13 18:46 | 29.62360 | -92.93166 | 28245 ft | 294 kts | 269° |
| 2026-04-13 18:46 | 29.62380 | -92.95510 | 28242 ft | 294 kts | 271° |
| 2026-04-13 18:46 | 29.62433 | -92.97827 | 28244 ft | 294 kts | 271° |
| 2026-04-13 18:47 | 29.62487 | -93.00180 | 28244 ft | 294 kts | 271° |
| 2026-04-13 18:47 | 29.62538 | -93.02526 | 28246 ft | 294 kts | 271° |
| 2026-04-13 18:47 | 29.62590 | -93.04876 | 28244 ft | 294 kts | 271° |
| 2026-04-13 18:47 | 29.62642 | -93.07226 | 28243 ft | 294 kts | 271° |
| 2026-04-13 18:48 | 29.62693 | -93.09577 | 28242 ft | 294 kts | 271° |
| 2026-04-13 18:48 | 29.62743 | -93.11932 | 28242 ft | 294 kts | 271° |
| 2026-04-13 18:48 | 29.62793 | -93.14283 | 28241 ft | 295 kts | 271° |
| 2026-04-13 18:48 | 29.62840 | -93.16637 | 28243 ft | 295 kts | 270° |
| 2026-04-13 18:49 | 29.62707 | -93.18991 | 28241 ft | 295 kts | 260° |
| 2026-04-13 18:49 | 29.62263 | -93.21262 | 28240 ft | 295 kts | 258° |
| 2026-04-13 18:49 | 29.61981 | -93.22823 | 28239 ft | 295 kts | 259° |
| 2026-04-13 18:49 | 29.61601 | -93.25143 | 28241 ft | 295 kts | 260° |
| 2026-04-13 18:50 | 29.61227 | -93.27470 | 28242 ft | 296 kts | 260° |
| 2026-04-13 18:50 | 29.60721 | -93.30552 | 28242 ft | 296 kts | 259° |
| 2026-04-13 18:50 | 29.60330 | -93.32873 | 28238 ft | 296 kts | 259° |
| 2026-04-13 18:50 | 29.59937 | -93.35194 | 28236 ft | 296 kts | 259° |
| 2026-04-13 18:51 | 29.59543 | -93.37516 | 28233 ft | 296 kts | 259° |
| 2026-04-13 18:51 | 29.59149 | -93.39837 | 28235 ft | 296 kts | 259° |
| 2026-04-13 18:51 | 29.58755 | -93.42162 | 28234 ft | 296 kts | 259° |
| 2026-04-13 18:51 | 29.58364 | -93.44452 | 28234 ft | 296 kts | 259° |
| 2026-04-13 18:52 | 29.57967 | -93.46772 | 28233 ft | 296 kts | 259° |
| 2026-04-13 18:52 | 29.57567 | -93.49095 | 28229 ft | 296 kts | 259° |
| 2026-04-13 18:52 | 29.57167 | -93.51418 | 28228 ft | 296 kts | 259° |
| 2026-04-13 18:52 | 29.56766 | -93.53744 | 28231 ft | 296 kts | 259° |
| 2026-04-13 18:53 | 29.56500 | -93.55280 | 28228 ft | 296 kts | 259° |
| 2026-04-13 18:53 | 29.55965 | -93.58375 | 28230 ft | 296 kts | 259° |
| 2026-04-13 18:53 | 29.55568 | -93.60667 | 28229 ft | 296 kts | 259° |
| 2026-04-13 18:53 | 29.55165 | -93.62991 | 28228 ft | 295 kts | 259° |
| 2026-04-13 18:54 | 29.54898 | -93.64527 | 28229 ft | 295 kts | 259° |
| 2026-04-13 18:54 | 29.54360 | -93.67628 | 28225 ft | 295 kts | 259° |
| 2026-04-13 18:54 | 29.53962 | -93.69915 | 28225 ft | 295 kts | 259° |
| 2026-04-13 18:54 | 29.53559 | -93.72228 | 28223 ft | 295 kts | 259° |
| 2026-04-13 18:55 | 29.53156 | -93.74541 | 28225 ft | 295 kts | 259° |
| 2026-04-13 18:55 | 29.52888 | -93.76075 | 28221 ft | 295 kts | 259° |
| 2026-04-13 18:55 | 29.52350 | -93.79164 | 28223 ft | 295 kts | 259° |
| 2026-04-13 18:55 | 29.51954 | -93.81477 | 28223 ft | 295 kts | 259° |
| 2026-04-13 18:56 | 29.51554 | -93.83787 | 28216 ft | 295 kts | 259° |
| 2026-04-13 18:56 | 29.51149 | -93.86096 | 28218 ft | 295 kts | 259° |
| 2026-04-13 18:56 | 29.50746 | -93.88372 | 28216 ft | 295 kts | 259° |
| 2026-04-13 18:56 | 29.50337 | -93.90679 | 28213 ft | 295 kts | 258° |
| 2026-04-13 18:57 | 29.49923 | -93.92988 | 28213 ft | 295 kts | 258° |
| 2026-04-13 18:57 | 29.49647 | -93.94545 | 28212 ft | 295 kts | 259° |
| 2026-04-13 18:57 | 29.49111 | -93.97598 | 28213 ft | 295 kts | 259° |
| 2026-04-13 18:57 | 29.48704 | -93.99905 | 28210 ft | 295 kts | 259° |
| 2026-04-13 18:58 | 29.48297 | -94.02211 | 28210 ft | 295 kts | 258° |
| 2026-04-13 18:58 | 29.48028 | -94.03737 | 28209 ft | 295 kts | 258° |
| 2026-04-13 18:58 | 29.47620 | -94.06043 | 28208 ft | 295 kts | 258° |
| 2026-04-13 18:58 | 29.47212 | -94.08348 | 28208 ft | 295 kts | 259° |
| 2026-04-13 18:59 | 29.46803 | -94.10654 | 28206 ft | 294 kts | 258° |
| 2026-04-13 18:59 | 29.46393 | -94.12961 | 28208 ft | 294 kts | 258° |
| 2026-04-13 18:59 | 29.45852 | -94.16007 | 28208 ft | 294 kts | 258° |
| 2026-04-13 18:59 | 29.45574 | -94.17569 | 28207 ft | 294 kts | 258° |
| 2026-04-13 19:00 | 29.45165 | -94.19869 | 28207 ft | 294 kts | 258° |
| 2026-04-13 19:00 | 29.44755 | -94.22172 | 28204 ft | 294 kts | 258° |
| 2026-04-13 19:00 | 29.44235 | -94.24414 | 28203 ft | 294 kts | 250° |
| 2026-04-13 19:00 | 29.43553 | -94.26624 | 28204 ft | 294 kts | 252° |
| 2026-04-13 19:01 | 29.42921 | -94.28859 | 28205 ft | 294 kts | 253° |
| 2026-04-13 19:01 | 29.42310 | -94.31096 | 28208 ft | 294 kts | 253° |
| 2026-04-13 19:01 | 29.41698 | -94.33342 | 28206 ft | 294 kts | 253° |
| 2026-04-13 19:01 | 29.41081 | -94.35580 | 28204 ft | 294 kts | 253° |
| 2026-04-13 19:02 | 29.40462 | -94.37791 | 28206 ft | 295 kts | 252° |
| 2026-04-13 19:02 | 29.39831 | -94.40030 | 28204 ft | 295 kts | 252° |
| 2026-04-13 19:02 | 29.39197 | -94.42270 | 28205 ft | 295 kts | 252° |
| 2026-04-13 19:02 | 29.38563 | -94.44507 | 28207 ft | 295 kts | 252° |
| 2026-04-13 19:03 | 29.37927 | -94.46746 | 28206 ft | 295 kts | 252° |
| 2026-04-13 19:03 | 29.37290 | -94.48987 | 28189 ft | 295 kts | 252° |
| 2026-04-13 19:03 | 29.36648 | -94.51245 | 27999 ft | 301 kts | 252° |
| 2026-04-13 19:03 | 29.35988 | -94.53578 | 27547 ft | 314 kts | 252° |
| 2026-04-13 19:04 | 29.35319 | -94.55962 | 27099 ft | 320 kts | 252° |
| 2026-04-13 19:04 | 29.34633 | -94.58388 | 26657 ft | 321 kts | 252° |
| 2026-04-13 19:04 | 29.33939 | -94.60825 | 26222 ft | 322 kts | 252° |
| 2026-04-13 19:04 | 29.33240 | -94.63270 | 25794 ft | 323 kts | 252° |
| 2026-04-13 19:05 | 29.32539 | -94.65722 | 25372 ft | 323 kts | 252° |
| 2026-04-13 19:05 | 29.31837 | -94.68174 | 24954 ft | 324 kts | 252° |
| 2026-04-13 19:05 | 29.31133 | -94.70633 | 24552 ft | 326 kts | 252° |
| 2026-04-13 19:05 | 29.30426 | -94.73101 | 24147 ft | 326 kts | 252° |
| 2026-04-13 19:06 | 29.29716 | -94.75580 | 23741 ft | 327 kts | 253° |
| 2026-04-13 19:06 | 29.29008 | -94.78054 | 23267 ft | 327 kts | 252° |
| 2026-04-13 19:06 | 29.28307 | -94.80504 | 22812 ft | 327 kts | 252° |
| 2026-04-13 19:06 | 29.27599 | -94.82985 | 22346 ft | 328 kts | 252° |
| 2026-04-13 19:07 | 29.26889 | -94.85468 | 21891 ft | 328 kts | 252° |
| 2026-04-13 19:07 | 29.26180 | -94.87953 | 21443 ft | 328 kts | 252° |
| 2026-04-13 19:07 | 29.25470 | -94.90436 | 21002 ft | 329 kts | 252° |
| 2026-04-13 19:07 | 29.24758 | -94.92926 | 20567 ft | 329 kts | 252° |
| 2026-04-13 19:08 | 29.24034 | -94.95411 | 20140 ft | 329 kts | 251° |
| 2026-04-13 19:08 | 29.23307 | -94.97899 | 19718 ft | 329 kts | 251° |
| 2026-04-13 19:08 | 29.22577 | -95.00387 | 19300 ft | 330 kts | 251° |
| 2026-04-13 19:08 | 29.21850 | -95.02878 | 18889 ft | 329 kts | 251° |
| 2026-04-13 19:09 | 29.21137 | -95.05324 | 18484 ft | 326 kts | 251° |
| 2026-04-13 19:09 | 29.20424 | -95.07773 | 18017 ft | 322 kts | 251° |
| 2026-04-13 19:09 | 29.19719 | -95.10196 | 17553 ft | 320 kts | 251° |
| 2026-04-13 19:09 | 29.19018 | -95.12609 | 17094 ft | 318 kts | 251° |
| 2026-04-13 19:10 | 29.18322 | -95.15005 | 16643 ft | 316 kts | 251° |
| 2026-04-13 19:10 | 29.17628 | -95.17395 | 16196 ft | 315 kts | 251° |
| 2026-04-13 19:10 | 29.16934 | -95.19778 | 15753 ft | 314 kts | 251° |
| 2026-04-13 19:10 | 29.16256 | -95.22107 | 15325 ft | 310 kts | 250° |
| 2026-04-13 19:11 | 29.15578 | -95.24435 | 14899 ft | 307 kts | 250° |
| 2026-04-13 19:11 | 29.14902 | -95.26749 | 14483 ft | 305 kts | 250° |
| 2026-04-13 19:11 | 29.14230 | -95.29050 | 14077 ft | 304 kts | 250° |
| 2026-04-13 19:11 | 29.13573 | -95.31300 | 13645 ft | 292 kts | 250° |
| 2026-04-13 19:12 | 29.12937 | -95.33465 | 13192 ft | 283 kts | 249° |
| 2026-04-13 19:12 | 29.12301 | -95.35564 | 12728 ft | 276 kts | 249° |
| 2026-04-13 19:12 | 29.11678 | -95.37623 | 12268 ft | 270 kts | 249° |
| 2026-04-13 19:12 | 29.11084 | -95.39642 | 11812 ft | 266 kts | 250° |
| 2026-04-13 19:13 | 29.10504 | -95.41638 | 11375 ft | 262 kts | 250° |
| 2026-04-13 19:13 | 29.09941 | -95.43578 | 10960 ft | 259 kts | 250° |
| 2026-04-13 19:13 | 29.09375 | -95.45526 | 10548 ft | 257 kts | 250° |
| 2026-04-13 19:13 | 29.08814 | -95.47458 | 10145 ft | 253 kts | 251° |
| 2026-04-13 19:14 | 29.08268 | -95.49317 | 9670 ft | 241 kts | 250° |
| 2026-04-13 19:14 | 29.07740 | -95.51093 | 9216 ft | 231 kts | 250° |
| 2026-04-13 19:14 | 29.07230 | -95.52812 | 8776 ft | 225 kts | 249° |
| 2026-04-13 19:14 | 29.06736 | -95.54494 | 8349 ft | 221 kts | 250° |
| 2026-04-13 19:15 | 29.06258 | -95.56134 | 7922 ft | 219 kts | 249° |
| 2026-04-13 19:15 | 29.05778 | -95.57775 | 7487 ft | 217 kts | 249° |
| 2026-04-13 19:15 | 29.05302 | -95.59399 | 7057 ft | 214 kts | 249° |
| 2026-04-13 19:15 | 29.04829 | -95.61004 | 6634 ft | 212 kts | 248° |
| 2026-04-13 19:16 | 29.04365 | -95.62579 | 6276 ft | 206 kts | 248° |
| 2026-04-13 19:16 | 29.03914 | -95.64110 | 5944 ft | 201 kts | 248° |
| 2026-04-13 19:16 | 29.03467 | -95.65621 | 5597 ft | 199 kts | 248° |
| 2026-04-13 19:16 | 29.03024 | -95.67120 | 5238 ft | 199 kts | 248° |
| 2026-04-13 19:17 | 29.02585 | -95.68610 | 4846 ft | 197 kts | 248° |
| 2026-04-13 19:17 | 29.02149 | -95.70090 | 4439 ft | 195 kts | 248° |
| 2026-04-13 19:17 | 29.01724 | -95.71528 | 4063 ft | 192 kts | 248° |
| 2026-04-13 19:17 | 29.01298 | -95.72962 | 3684 ft | 189 kts | 247° |
| 2026-04-13 19:18 | 29.00877 | -95.74375 | 3360 ft | 186 kts | 248° |
| 2026-04-13 19:18 | 29.00463 | -95.75776 | 3003 ft | 185 kts | 246° |
| 2026-04-13 19:18 | 29.00056 | -95.77160 | 2653 ft | 183 kts | 245° |
| 2026-04-13 19:18 | 28.99673 | -95.78546 | 2321 ft | 183 kts | 247° |
| 2026-04-13 19:19 | 28.99315 | -95.79941 | 1980 ft | 183 kts | 248° |
| 2026-04-13 19:19 | 28.98970 | -95.81322 | 1778 ft | 177 kts | 246° |
| 2026-04-13 19:19 | 28.98553 | -95.82585 | 1659 ft | 173 kts | 257° |
| 2026-04-13 19:19 | 28.98975 | -95.83910 | 1647 ft | 195 kts | 304° |
| 2026-04-13 19:20 | 28.99896 | -95.85079 | 1622 ft | 200 kts | 310° |
| 2026-04-13 19:20 | 29.00802 | -95.86183 | 1589 ft | 181 kts | 310° |
| 2026-04-13 19:20 | 29.01654 | -95.87187 | 1576 ft | 171 kts | 310° |
| 2026-04-13 19:20 | 29.02273 | -95.88306 | 1446 ft | 167 kts | 275° |
| 2026-04-13 19:21 | 29.02025 | -95.89476 | 1434 ft | 145 kts | 227° |
| 2026-04-13 19:21 | 29.01265 | -95.89973 | 1314 ft | 121 kts | 179° |
| 2026-04-13 19:21 | 29.00487 | -95.89730 | 1016 ft | 112 kts | 156° |
| 2026-04-13 19:21 | 28.99850 | -95.89273 | 765 ft | 106 kts | 142° |
| 2026-04-13 19:22 | 28.99343 | -95.88710 | 624 ft | 101 kts | 138° |
| 2026-04-13 19:22 | 28.98832 | -95.88125 | 493 ft | 106 kts | 136° |
| 2026-04-13 19:22 | 28.98325 | -95.87528 | 293 ft | 101 kts | 137° |
| 2026-04-13 19:22 | 28.97846 | -95.86967 | 100 ft | 94 kts | 138° |
| 2026-04-13 19:23 | 28.97450 | -95.86500 | 47 ft | 65 kts | 134° |
| 2026-04-13 19:23 | 28.97267 | -95.86282 | 46 ft | 46 kts | 133° |
| 2026-04-13 19:23 | 28.97186 | -95.86191 | 47 ft | 5 kts | 150° |
| 2026-04-13 19:23 | 28.97196 | -95.86190 | 47 ft | 6 kts | 308° |
| 2026-04-13 19:24 | 28.97230 | -95.86187 | 46 ft | 5 kts | 44° |
| 2026-04-13 19:24 | 28.97266 | -95.86147 | 47 ft | 10 kts | 44° |
| 2026-04-13 19:24 | 28.97301 | -95.86114 | 47 ft | 7 kts | 5° |
| 2026-04-13 19:24 | 28.97327 | -95.86145 | 47 ft | 3 kts | 236° |
| 2026-04-13 19:25 | 28.97324 | -95.86149 | 47 ft | 0 kts | 215° |
| 2026-04-13 19:25 | 28.97322 | -95.86150 | 47 ft | 0 kts | 219° |